createdAt,value
2019-03-05T00:00:36.877Z,96819.31
2019-03-05T00:05:43.167Z,96818.94
2019-03-05T00:10:48.655Z,96823.23
2019-03-05T00:15:56.019Z,96823.97
2019-03-05T00:21:01.583Z,96825.02
2019-03-05T00:26:07.359Z,96815.13
2019-03-05T00:31:25.919Z,96821.64
2019-03-05T00:36:42.662Z,96820.91
2019-03-05T00:42:11.651Z,96815.78
2019-03-05T00:47:38.924Z,96833.20
2019-03-05T00:52:52.545Z,96826.41
2019-03-05T00:58:21.288Z,96819.97
2019-03-05T01:03:39.493Z,96811.20
2019-03-05T01:08:45.840Z,96819.75
2019-03-05T01:13:50.456Z,96803.00
2019-03-05T01:18:55.201Z,96796.94
2019-03-05T01:24:00.915Z,96805.88
2019-03-05T01:29:05.715Z,96797.74
2019-03-05T01:34:12.093Z,96792.53
2019-03-05T01:39:27.592Z,96783.14
2019-03-05T01:44:33.047Z,96770.66
2019-03-05T01:49:39.539Z,96767.06
2019-03-05T01:54:45.918Z,96764.06
2019-03-05T01:59:52.091Z,96759.30
2019-03-05T02:04:56.937Z,96753.18
2019-03-05T02:10:01.680Z,96748.09
2019-03-05T02:15:08.273Z,96743.50
2019-03-05T02:20:22.601Z,96732.10
2019-03-05T02:25:33.317Z,96717.11
2019-03-05T02:30:50.243Z,96712.03
2019-03-05T02:36:16.691Z,96713.89
2019-03-05T02:41:38.028Z,96729.47
2019-03-05T02:46:57.822Z,96733.69
2019-03-05T02:52:37.715Z,96731.12
2019-03-05T02:57:41.414Z,96725.63
2019-03-05T03:02:53.937Z,96734.02
2019-03-05T03:07:58.888Z,96725.80
2019-03-05T03:13:03.627Z,96727.42
2019-03-05T03:18:09.083Z,96725.00
2019-03-05T03:23:15.364Z,96741.59
2019-03-05T03:28:21.666Z,96746.17
2019-03-05T03:33:27.964Z,96752.64
2019-03-05T03:38:32.841Z,96752.75
2019-03-05T03:43:39.256Z,96757.73
2019-03-05T03:48:44.544Z,96760.52
2019-03-05T03:53:49.351Z,96761.35
2019-03-05T03:58:55.442Z,96776.09
2019-03-05T04:04:00.273Z,96760.64
2019-03-05T04:09:10.193Z,96760.50
2019-03-05T04:14:14.986Z,96760.63
2019-03-05T04:19:21.256Z,96773.44
2019-03-05T05:19:35.063Z,96861.61
2019-03-05T05:24:41.457Z,96868.23
2019-03-05T05:29:46.293Z,96858.00
2019-03-05T05:34:51.712Z,96843.66
2019-03-05T05:40:20.661Z,96852.75
2019-03-05T05:45:28.701Z,96854.16
2019-03-05T05:50:35.163Z,96851.70
2019-03-05T05:55:40.325Z,96857.74
2019-03-05T06:00:46.822Z,96857.78
2019-03-05T06:05:51.669Z,96860.84
2019-03-05T06:10:57.479Z,96862.59
2019-03-05T06:16:02.162Z,96876.80
2019-03-05T06:21:06.900Z,96872.67
2019-03-05T06:26:11.574Z,96869.64
2019-03-05T06:31:16.153Z,96883.94
2019-03-05T06:36:24.940Z,96894.73
2019-03-05T06:41:29.763Z,96899.35
2019-03-05T06:46:36.042Z,96904.59
2019-03-05T06:51:42.323Z,96901.42
2019-03-05T06:56:48.404Z,96911.88
2019-03-05T07:01:53.074Z,96913.84
2019-03-05T07:06:59.216Z,96908.20
2019-03-05T07:12:18.702Z,96909.07
2019-03-05T07:17:38.348Z,96917.10
2019-03-05T07:22:58.214Z,96924.42
2019-03-05T07:28:03.034Z,96916.22
2019-03-05T07:33:07.784Z,96919.59
2019-03-05T07:38:12.528Z,96936.11
2019-03-05T07:43:17.271Z,96941.17
2019-03-05T07:48:22.019Z,96952.00
2019-03-05T07:53:30.849Z,96957.20
2019-03-05T07:58:35.475Z,96968.41
2019-03-05T08:03:41.771Z,96974.94
2019-03-05T08:09:23.174Z,96969.05
2019-03-05T08:14:46.045Z,96986.34
2019-03-05T08:19:51.012Z,96999.72
2019-03-05T08:24:57.379Z,97006.00
2019-03-05T08:30:13.815Z,97004.83
2019-03-05T08:35:12.190Z,96998.64
2019-03-05T08:40:18.067Z,97011.03
2019-03-05T08:45:29.331Z,97009.96
2019-03-05T08:50:33.534Z,97014.59
2019-03-05T08:55:38.226Z,97012.87
2019-03-05T09:00:48.056Z,97016.90
2019-03-05T09:05:52.423Z,97018.23
2019-03-05T09:10:57.165Z,97020.06
2019-03-05T09:16:01.908Z,97016.27
2019-03-05T09:21:08.189Z,97011.38
2019-03-05T09:26:12.950Z,97008.73
2019-03-05T09:31:17.684Z,97009.64
2019-03-05T09:36:24.162Z,97014.66
2019-03-05T09:41:30.136Z,97014.90
2019-03-05T09:46:35.046Z,97017.27
2019-03-05T09:51:40.338Z,97014.30
2019-03-05T09:56:45.290Z,97005.11
2019-03-05T10:01:51.893Z,97004.36
2019-03-05T10:06:56.620Z,97000.72
2019-03-05T10:12:01.362Z,96994.31
2019-03-05T10:17:06.208Z,96996.22
2019-03-05T10:22:12.487Z,97000.88
2019-03-05T10:27:18.452Z,96981.84
2019-03-05T10:32:23.406Z,96971.73
2019-03-05T10:37:29.113Z,96986.32
2019-03-05T10:42:34.697Z,96964.95
2019-03-05T10:47:39.248Z,96978.31
2019-03-05T10:52:43.842Z,96970.11
2019-03-05T10:57:48.456Z,96965.52
2019-03-05T11:02:55.555Z,96966.38
2019-03-05T11:08:00.300Z,96980.50
2019-03-05T11:13:05.780Z,96968.84
2019-03-05T11:18:11.628Z,96961.66
2019-03-05T11:23:16.481Z,96951.69
2019-03-05T11:28:21.218Z,96949.77
2019-03-05T11:33:26.373Z,96945.98
2019-03-05T11:38:31.316Z,96942.25
2019-03-05T11:43:40.203Z,96945.78
2019-03-05T11:48:45.108Z,96944.05
2019-03-05T11:53:49.857Z,96941.89
2019-03-05T11:58:57.255Z,96931.17
2019-03-05T12:04:02.637Z,96929.23
2019-03-05T12:09:08.899Z,96919.30
2019-03-05T12:14:14.049Z,96919.48
2019-03-05T12:19:18.695Z,96918.73
2019-03-05T12:24:25.414Z,96911.41
2019-03-05T12:29:31.863Z,96909.93
2019-03-05T12:34:38.147Z,96909.77
2019-03-05T12:39:42.888Z,96902.65
2019-03-05T12:44:49.274Z,96905.39
2019-03-05T12:49:55.348Z,96910.88
2019-03-05T12:54:59.990Z,96912.41
2019-03-05T13:00:09.432Z,96920.96
2019-03-05T13:05:16.810Z,96927.82
2019-03-05T13:10:26.349Z,96929.39
2019-03-05T13:15:35.382Z,96933.14
2019-03-05T13:20:40.088Z,96941.95
2019-03-05T13:25:44.958Z,96957.45
2019-03-05T13:30:49.670Z,96965.41
2019-03-05T13:35:55.036Z,96968.80
2019-03-05T13:40:59.780Z,96980.20
2019-03-05T13:46:05.772Z,96988.58
2019-03-05T13:51:24.180Z,96997.58
2019-03-05T13:56:54.561Z,97003.38
2019-03-05T14:01:59.302Z,97019.64
2019-03-05T14:07:30.093Z,97025.38
2019-03-05T14:12:34.928Z,97032.02
2019-03-05T14:17:41.639Z,97029.14
2019-03-05T14:22:46.442Z,97028.87
2019-03-05T14:27:51.180Z,97035.31
2019-03-05T14:32:56.148Z,97041.14
2019-03-05T14:38:00.912Z,97037.05
2019-03-05T14:43:06.013Z,97041.55
2019-03-05T14:48:10.781Z,97049.19
2019-03-05T14:53:15.622Z,97048.38
2019-03-05T14:58:20.391Z,97045.81
2019-03-05T15:03:25.226Z,97055.48
2019-03-05T15:08:29.993Z,97053.03
2019-03-05T15:13:34.712Z,97047.62
2019-03-05T15:18:39.589Z,97043.62
2019-03-05T15:23:44.367Z,97042.86
2019-03-05T15:28:56.158Z,97036.11
2019-03-05T15:33:56.579Z,97040.41
2019-03-05T15:39:01.397Z,97051.34
2019-03-05T15:44:07.801Z,97044.04
2019-03-05T15:49:12.715Z,97054.97
2019-03-05T15:54:17.750Z,97060.86
2019-03-05T15:59:22.625Z,97068.88
2019-03-05T16:04:29.890Z,97081.73
2019-03-05T16:09:40.598Z,97096.64
2019-03-05T16:14:51.611Z,97113.90
2019-03-05T16:20:05.996Z,97127.41
2019-03-05T16:25:23.668Z,97139.53
2019-03-05T16:30:54.996Z,97120.47
2019-03-05T16:36:19.066Z,97162.50
2019-03-05T16:41:25.570Z,97171.50
2019-03-05T16:46:33.128Z,97152.23
2019-03-05T16:51:44.457Z,97179.93
2019-03-05T16:57:00.061Z,97209.66
2019-03-05T17:02:15.347Z,97226.73
2019-03-05T17:07:38.050Z,97238.29
2019-03-05T17:12:43.369Z,97242.09
2019-03-05T17:17:48.222Z,97253.68
2019-03-05T17:22:53.063Z,97267.55
2019-03-05T17:27:58.320Z,97267.55
2019-03-05T17:33:03.054Z,97277.20
2019-03-05T17:38:08.120Z,97278.61
2019-03-05T17:43:13.156Z,97292.59
2019-03-05T17:48:23.999Z,97316.53
2019-03-05T17:53:41.165Z,97314.80
2019-03-05T17:58:49.035Z,97315.14
2019-03-05T18:03:57.720Z,97319.74
2019-03-05T18:09:03.005Z,97320.64
2019-03-05T18:14:10.240Z,97320.72
2019-03-05T18:19:15.470Z,97333.36
2019-03-05T18:24:20.598Z,97329.95
2019-03-05T18:29:26.019Z,97336.41
2019-03-05T18:34:31.732Z,97341.56
2019-03-05T18:39:37.494Z,97349.86
2019-03-05T18:44:44.284Z,97348.03
2019-03-05T18:49:49.908Z,97346.09
2019-03-05T18:54:55.331Z,97351.78
2019-03-05T19:00:00.603Z,97360.61
2019-03-05T19:05:09.465Z,97364.19
2019-03-05T19:10:22.233Z,97358.27
2019-03-05T19:15:29.303Z,97383.12
2019-03-05T19:20:34.817Z,97383.41
2019-03-05T19:25:45.069Z,97379.59
2019-03-05T19:30:51.246Z,97386.75
2019-03-05T19:35:55.982Z,97389.92
2019-03-05T19:41:00.828Z,97393.59
2019-03-05T19:46:05.576Z,97382.88
2019-03-05T19:51:10.315Z,97395.22
2019-03-05T19:56:15.968Z,97395.31
2019-03-05T20:01:22.260Z,97393.51
2019-03-05T20:06:28.170Z,97399.06
2019-03-05T20:11:32.975Z,97411.58
2019-03-05T20:16:37.722Z,97413.49
2019-03-05T20:21:42.760Z,97412.22
2019-03-05T20:26:48.034Z,97413.98
2019-03-05T20:31:53.911Z,97419.62
2019-03-05T20:36:58.698Z,97419.30
2019-03-05T20:42:03.697Z,97420.77
2019-03-05T20:47:10.177Z,97423.25
2019-03-05T20:52:15.127Z,97420.80
2019-03-05T20:57:19.774Z,97427.47
2019-03-05T21:02:24.500Z,97438.72
2019-03-05T21:07:29.353Z,97436.38
2019-03-05T21:12:34.086Z,97445.23
2019-03-05T21:17:38.870Z,97445.10
2019-03-05T21:22:43.686Z,97454.78
2019-03-05T21:27:48.422Z,97459.09
2019-03-05T21:32:53.165Z,97465.35
2019-03-05T21:37:58.012Z,97480.33
2019-03-05T21:43:02.854Z,97499.05
2019-03-05T21:48:07.598Z,97511.74
2019-03-05T21:53:12.547Z,97525.26
2019-03-05T21:58:17.289Z,97550.38
2019-03-05T22:03:22.236Z,97555.42
2019-03-05T22:08:26.978Z,97559.52
2019-03-05T22:13:32.848Z,97569.75
2019-03-05T22:18:37.564Z,97569.41
2019-03-05T22:23:42.436Z,97569.44
2019-03-05T22:28:47.078Z,97569.25
2019-03-05T22:33:51.718Z,97557.97
2019-03-05T22:39:15.110Z,97551.61
2019-03-05T22:44:20.039Z,97555.86
2019-03-05T22:49:24.792Z,97552.64
2019-03-05T22:54:29.538Z,97550.38
2019-03-05T22:59:34.140Z,97556.75
2019-03-05T23:04:38.815Z,97552.59
2019-03-05T23:09:43.376Z,97556.91
2019-03-05T23:14:47.993Z,97562.70
2019-03-05T23:19:52.939Z,97559.98
2019-03-05T23:24:57.579Z,97562.77
2019-03-05T23:30:02.324Z,97559.15
2019-03-05T23:35:09.836Z,97547.63
2019-03-05T23:40:15.798Z,97547.55
2019-03-05T23:45:20.643Z,97558.17
2019-03-05T23:50:27.110Z,97545.45
2019-03-05T23:55:31.776Z,97532.91
